Time;durP1;ratioP1;P1;durP2;ratioP2;P2;SDS_P1;SDS_P2;PMS_P1;PMS_P2;Temp;Humidity;BMP_temperature;BMP_pressure;BME280_temperature;BME280_humidity;BME280_pressure;Samples;Min_cycle;Max_cycle;Signal;HPM_P1;HPM_P2
2021/08/13 00:02:24;;;;;;;14.37;12.13;;;;;;;17.63;100.00;101832.31;5147393;28;20058;-65
2021/08/13 00:04:55;;;;;;;14.75;11.73;;;;;;;17.66;100.00;101842.59;5156148;28;20035;-66
2021/08/13 00:07:26;;;;;;;12.27;11.07;;;;;;;17.61;100.00;101835.09;5155308;28;20516;-66
2021/08/13 00:09:58;;;;;;;13.53;11.63;;;;;;;17.60;100.00;101840.56;5154960;28;20057;-66
2021/08/13 00:12:29;;;;;;;13.07;10.87;;;;;;;17.55;100.00;101845.47;5154181;28;20034;-66
2021/08/13 00:15:01;;;;;;;14.10;12.70;;;;;;;17.52;100.00;101846.59;5154488;28;20508;-66
2021/08/13 00:17:32;;;;;;;12.87;11.57;;;;;;;17.50;100.00;101843.25;5155384;28;20026;-66
2021/08/13 00:20:04;;;;;;;14.70;12.65;;;;;;;17.45;100.00;101846.38;5154031;28;20174;-66
2021/08/13 00:22:35;;;;;;;14.52;11.68;;;;;;;17.47;100.00;101851.53;5153813;28;20035;-66
2021/08/13 00:25:07;;;;;;;12.73;11.43;;;;;;;17.47;100.00;101848.88;5154578;28;20407;-66
2021/08/13 00:27:38;;;;;;;14.77;12.00;;;;;;;17.51;100.00;101850.25;5153716;28;20035;-66
2021/08/13 00:30:10;;;;;;;16.57;12.30;;;;;;;17.56;100.00;101847.16;5152345;29;20062;-66
2021/08/13 00:32:42;;;;;;;13.43;12.02;;;;;;;17.59;100.00;101852.97;5154878;28;20054;-66
2021/08/13 00:35:13;;;;;;;15.83;13.20;;;;;;;17.63;100.00;101849.03;5153980;28;20023;-66
2021/08/13 00:37:44;;;;;;;14.63;12.07;;;;;;;17.66;100.00;101855.84;5153071;28;20503;-66
2021/08/13 00:40:16;;;;;;;14.40;12.80;;;;;;;17.71;100.00;101854.41;5154302;28;20050;-66
2021/08/13 00:42:47;;;;;;;15.27;13.50;;;;;;;17.72;100.00;101856.06;5154483;28;20027;-66
2021/08/13 00:45:18;;;;;;;13.60;12.27;;;;;;;17.73;100.00;101860.41;5154319;28;20651;-66
2021/08/13 00:47:50;;;;;;;14.80;13.30;;;;;;;17.78;100.00;101861.78;5153868;28;20150;-66
2021/08/13 00:50:21;;;;;;;13.82;12.38;;;;;;;17.79;100.00;101855.50;5154273;28;20023;-66
2021/08/13 00:52:53;;;;;;;15.00;13.00;;;;;;;17.83;100.00;101865.63;5154334;28;20118;-66
2021/08/13 00:55:24;;;;;;;15.10;13.57;;;;;;;17.90;100.00;101871.16;5152996;28;20027;-66
2021/08/13 00:57:55;;;;;;;14.13;12.60;;;;;;;17.90;100.00;101879.13;5154153;28;20030;-66
2021/08/13 01:00:27;;;;;;;18.13;12.40;;;;;;;17.91;100.00;101867.53;5153783;28;20547;-66
2021/08/13 01:02:58;;;;;;;14.53;12.47;;;;;;;17.99;100.00;101880.84;5153559;28;20079;-66
2021/08/13 01:05:30;;;;;;;15.10;12.13;;;;;;;17.86;100.00;101886.53;5153525;28;20146;-66
2021/08/13 01:08:01;;;;;;;15.80;13.47;;;;;;;17.89;100.00;101886.25;5152593;29;20062;-66
2021/08/13 01:10:41;;;;;;;17.23;15.27;;;;;;;17.91;100.00;101899.34;5154441;28;20109;-66
2021/08/13 01:13:16;;;;;;;16.23;14.60;;;;;;;17.87;100.00;101890.03;5152949;29;20078;-66
2021/08/13 01:15:53;;;;;;;17.67;15.90;;;;;;;17.87;100.00;101888.19;5152656;28;20449;-65
2021/08/13 01:18:31;;;;;;;18.05;16.20;;;;;;;17.90;100.00;101887.91;5153676;28;20073;-66
2021/08/13 01:21:42;;;;;;;20.23;16.83;;;;;;;18.02;100.00;101879.72;5152540;28;20172;-65
2021/08/13 01:24:20;;;;;;;20.98;18.73;;;;;;;17.89;100.00;101891.53;5091552;29;20456;-66
2021/08/13 01:27:02;;;;;;;21.50;19.17;;;;;;;17.85;100.00;101889.34;5147086;28;21085;-66
2021/08/13 01:30:01;;;;;;;20.23;18.10;;;;;;;17.95;100.00;101896.22;5152059;29;20086;-65
2021/08/13 01:33:09;;;;;;;24.05;20.05;;;;;;;17.88;100.00;101891.69;5150130;29;20117;-66
2021/08/13 01:35:45;;;;;;;22.10;19.27;;;;;;;17.86;100.00;101897.16;5139376;28;20039;-66
2021/08/13 01:38:26;;;;;;;24.00;21.13;;;;;;;17.84;100.00;101903.56;5152025;29;20027;-66
2021/08/13 01:41:03;;;;;;;22.83;20.33;;;;;;;17.84;100.00;101890.31;5150271;29;20031;-66
2021/08/13 01:43:37;;;;;;;25.73;22.45;;;;;;;17.78;100.00;101896.25;5149720;29;20473;-66
2021/08/13 01:46:08;;;;;;;24.67;22.05;;;;;;;17.81;100.00;101899.44;5150666;29;20284;-66
2021/08/13 01:48:40;;;;;;;26.45;23.42;;;;;;;17.76;100.00;101896.38;5150245;28;20077;-66
2021/08/13 01:51:17;;;;;;;28.63;22.23;;;;;;;17.74;100.00;101893.84;5151001;29;20023;-66
2021/08/13 01:53:49;;;;;;;27.45;22.92;;;;;;;17.69;100.00;101889.97;5151285;29;20378;-65
2021/08/13 01:56:22;;;;;;;28.33;23.95;;;;;;;17.73;100.00;101888.72;5150622;29;20027;-66
2021/08/13 01:58:54;;;;;;;27.08;23.95;;;;;;;17.69;100.00;101882.88;5152503;29;20122;-66
2021/08/13 02:01:29;;;;;;;30.95;23.88;;;;;;;17.70;100.00;101884.56;5151908;28;20110;-66
2021/08/13 02:04:01;;;;;;;27.95;24.75;;;;;;;17.67;100.00;101882.19;5151778;29;20445;-66
2021/08/13 02:06:34;;;;;;;;;;;;;;;17.93;100.00;101879.66;5150272;29;20605;-66
2021/08/13 02:09:05;;;;;;;25.58;22.17;;;;;;;17.64;100.00;101885.13;5152560;29;19918;-66
2021/08/13 02:11:37;;;;;;;29.80;23.43;;;;;;;17.60;100.00;101875.00;5152432;28;20823;-66
2021/08/13 02:14:09;;;;;;;25.98;23.27;;;;;;;17.62;100.00;101879.19;5152394;28;20015;-66
2021/08/13 02:16:47;;;;;;;26.98;23.15;;;;;;;17.59;100.00;101881.28;5150860;29;20030;-66
2021/08/13 02:19:24;;;;;;;25.73;22.83;;;;;;;17.54;100.00;101871.16;5151565;29;20038;-66
2021/08/13 02:21:57;;;;;;;29.55;23.52;;;;;;;17.50;100.00;101880.34;5152522;29;20023;-66
2021/08/13 02:24:28;;;;;;;26.67;23.95;;;;;;;17.52;100.00;101878.41;5151429;29;20110;-66
2021/08/13 02:27:01;;;;;;;25.73;22.98;;;;;;;17.51;100.00;101887.34;5151034;28;20089;-66
2021/08/13 02:29:32;;;;;;;25.80;23.02;;;;;;;17.47;100.00;101880.69;5150915;29;20036;-67
2021/08/13 02:32:04;;;;;;;26.90;23.60;;;;;;;17.52;100.00;101884.53;5152790;28;20405;-66
2021/08/13 02:34:37;;;;;;;25.43;22.77;;;;;;;17.52;100.00;101876.59;5151105;29;20098;-66
2021/08/13 02:37:21;;;;;;;26.77;23.27;;;;;;;17.55;100.00;101883.41;5151843;28;20556;-66
2021/08/13 02:39:54;;;;;;;25.60;22.92;;;;;;;17.51;100.00;101879.41;5151656;29;20035;-66
2021/08/13 02:42:28;;;;;;;;;;;;;;;17.78;100.00;101881.16;5151489;29;20102;-66
2021/08/13 02:45:00;;;;;;;;;;;;;;;17.78;100.00;101883.81;5152980;28;19914;-66
2021/08/13 02:47:31;;;;;;;25.58;21.20;;;;;;;17.52;100.00;101873.94;5151808;29;19929;-66
2021/08/13 02:50:09;;;;;;;25.65;22.85;;;;;;;17.56;100.00;101879.75;5151876;28;20019;-65
2021/08/13 02:52:45;;;;;;;25.58;22.88;;;;;;;17.55;100.00;101874.63;5151421;29;20035;-66
2021/08/13 02:55:21;;;;;;;26.10;23.20;;;;;;;17.57;100.00;101870.81;5152390;29;20037;-66
2021/08/13 02:57:58;;;;;;;25.63;22.90;;;;;;;17.51;100.00;101864.31;5149839;29;20038;-65
2021/08/13 03:00:31;;;;;;;25.90;22.65;;;;;;;17.52;100.00;101857.22;5151118;28;20035;-66
2021/08/13 03:03:02;;;;;;;;;;;;;;;17.78;100.00;101864.44;5152756;28;20098;-65
2021/08/13 03:05:39;;;;;;;24.58;21.95;;;;;;;17.50;100.00;101862.66;5150458;28;20000;-66
2021/08/13 03:08:10;;;;;;;25.48;22.83;;;;;;;17.45;100.00;101858.78;5151099;29;20039;-66
2021/08/13 03:10:42;;;;;;;32.78;24.20;;;;;;;17.41;100.00;101855.59;5151311;28;20089;-66
2021/08/13 03:13:16;;;;;;;27.75;24.65;;;;;;;17.40;100.00;101858.41;5150936;28;20035;-66
2021/08/13 03:15:47;;;;;;;25.88;22.92;;;;;;;17.37;100.00;101851.59;5151844;28;20039;-66
2021/08/13 03:18:19;;;;;;;28.13;23.95;;;;;;;17.28;100.00;101849.84;5151680;29;20074;-66
2021/08/13 03:20:51;;;;;;;27.80;24.87;;;;;;;17.22;100.00;101853.91;5150108;28;20056;-65
2021/08/13 03:23:23;;;;;;;33.03;25.00;;;;;;;17.18;100.00;101855.19;5151094;29;20267;-66
2021/08/13 03:25:56;;;;;;;27.42;24.60;;;;;;;17.15;100.00;101854.66;5150915;29;20038;-66
2021/08/13 03:28:27;;;;;;;30.15;23.98;;;;;;;17.18;100.00;101863.16;5150956;28;20385;-66
2021/08/13 03:30:59;;;;;;;29.38;24.52;;;;;;;17.18;100.00;101859.66;5150529;29;20324;-66
2021/08/13 03:33:30;;;;;;;27.10;24.17;;;;;;;17.13;100.00;101856.63;5151632;28;20027;-66
2021/08/13 03:36:02;;;;;;;27.38;23.40;;;;;;;17.18;100.00;101847.25;5150451;29;20043;-66
2021/08/13 03:38:33;;;;;;;31.55;24.77;;;;;;;17.13;100.00;101852.19;5152492;28;20509;-65
2021/08/13 03:41:04;;;;;;;33.30;24.02;;;;;;;17.10;100.00;101841.88;5155402;28;20027;-66
2021/08/13 03:43:35;;;;;;;30.10;24.90;;;;;;;17.04;100.00;101853.03;5155038;28;20023;-65
2021/08/13 03:46:07;;;;;;;31.60;24.23;;;;;;;17.11;100.00;101861.25;5154861;29;20114;-66
2021/08/13 03:48:38;;;;;;;31.27;24.60;;;;;;;17.00;100.00;101859.63;5154636;28;20034;-65
2021/08/13 03:51:09;;;;;;;29.52;23.95;;;;;;;16.99;100.00;101855.31;5155556;28;20027;-66
2021/08/13 03:53:41;;;;;;;30.65;25.02;;;;;;;17.03;100.00;101854.88;5154708;29;20038;-66
2021/08/13 03:56:12;;;;;;;31.02;23.25;;;;;;;16.98;100.00;101851.00;5154420;28;20030;-65
2021/08/13 03:58:44;;;;;;;30.65;23.92;;;;;;;16.98;100.00;101861.59;5155042;28;20054;-66
2021/08/13 04:01:15;;;;;;;33.30;24.97;;;;;;;16.99;100.00;101857.97;5153525;28;20023;-66
2021/08/13 04:03:46;;;;;;;29.13;24.38;;;;;;;16.95;100.00;101859.22;5154756;29;20051;-65
2021/08/13 04:06:18;;;;;;;27.67;23.67;;;;;;;16.91;100.00;101865.81;5153342;28;20027;-65
2021/08/13 04:08:49;;;;;;;31.10;24.10;;;;;;;16.87;100.00;101867.91;5153822;28;20032;-66
2021/08/13 04:11:20;;;;;;;28.85;24.48;;;;;;;16.82;100.00;101877.25;5154122;28;20031;-66
2021/08/13 04:13:52;;;;;;;31.58;25.80;;;;;;;16.85;100.00;101883.09;5155026;28;20027;-66
2021/08/13 04:16:23;;;;;;;28.38;24.60;;;;;;;16.82;100.00;101872.81;5154107;28;20019;-66
2021/08/13 04:18:54;;;;;;;30.17;24.80;;;;;;;16.88;100.00;101874.03;5154660;28;20024;-66
2021/08/13 04:21:25;;;;;;;29.63;24.92;;;;;;;16.84;100.00;101877.94;5154301;28;20487;-66
2021/08/13 04:23:57;;;;;;;29.67;24.45;;;;;;;16.80;100.00;101872.13;5152348;29;20397;-65
2021/08/13 04:26:28;;;;;;;29.48;24.25;;;;;;;16.81;100.00;101870.31;5153747;28;20390;-66
2021/08/13 04:28:59;;;;;;;30.38;23.60;;;;;;;16.87;100.00;101872.38;5154717;28;20057;-65
2021/08/13 04:31:30;;;;;;;28.20;24.63;;;;;;;16.78;100.00;101866.13;5154007;29;21787;-65
2021/08/13 04:34:02;;;;;;;26.85;22.92;;;;;;;16.72;100.00;101864.03;5153311;29;20034;-65
2021/08/13 04:36:33;;;;;;;27.58;24.38;;;;;;;16.73;100.00;101865.69;5152645;28;20031;-65
2021/08/13 04:39:04;;;;;;;27.60;23.35;;;;;;;16.73;100.00;101863.06;5153176;28;20034;-66
2021/08/13 04:41:36;;;;;;;26.67;22.98;;;;;;;16.74;100.00;101876.19;5153858;28;20477;-66
2021/08/13 04:44:08;;;;;;;27.40;22.20;;;;;;;16.72;100.00;101869.34;5153844;28;20576;-65
2021/08/13 04:46:39;;;;;;;26.50;21.50;;;;;;;16.71;100.00;101872.97;5153448;28;20035;-65
2021/08/13 04:49:10;;;;;;;25.35;21.58;;;;;;;16.69;100.00;101869.63;5154496;28;20015;-65
2021/08/13 04:51:42;;;;;;;26.42;20.67;;;;;;;16.66;100.00;101868.09;5154701;28;20086;-66
2021/08/13 04:54:13;;;;;;;24.97;20.33;;;;;;;16.67;100.00;101880.38;5152390;29;20034;-65
2021/08/13 04:56:45;;;;;;;25.25;20.70;;;;;;;16.70;100.00;101882.69;5153728;28;20425;-66
2021/08/13 04:59:16;;;;;;;22.70;19.47;;;;;;;16.71;100.00;101884.38;5154171;29;20554;-66
2021/08/13 05:01:47;;;;;;;21.58;19.23;;;;;;;16.69;100.00;101894.25;5154509;28;20777;-66
2021/08/13 05:04:19;;;;;;;24.33;19.88;;;;;;;16.72;100.00;101901.91;5152891;28;20143;-66
2021/08/13 05:06:50;;;;;;;23.70;19.90;;;;;;;16.72;100.00;101896.63;5152686;28;20568;-66
2021/08/13 05:09:21;;;;;;;22.50;19.27;;;;;;;16.74;100.00;101894.72;5154095;28;20058;-66
2021/08/13 05:11:52;;;;;;;25.27;19.67;;;;;;;16.69;100.00;101899.56;5152301;29;20495;-66
2021/08/13 05:14:24;;;;;;;22.60;19.73;;;;;;;16.71;100.00;101897.63;5153948;28;20405;-65
2021/08/13 05:16:55;;;;;;;22.73;19.10;;;;;;;16.74;100.00;101905.31;5154111;28;20015;-66
2021/08/13 05:19:26;;;;;;;23.27;19.30;;;;;;;16.75;100.00;101916.72;5154208;28;20058;-65
2021/08/13 05:21:57;;;;;;;21.67;18.35;;;;;;;16.80;100.00;101910.97;5152589;28;20019;-65
2021/08/13 05:24:29;;;;;;;20.95;17.77;;;;;;;16.82;100.00;101916.94;5152039;29;20031;-66
2021/08/13 05:27:00;;;;;;;23.95;18.13;;;;;;;16.87;100.00;101934.09;5149449;28;20033;-66
2021/08/13 05:29:31;;;;;;;19.40;16.60;;;;;;;16.90;100.00;101919.72;5152198;28;20038;-67
2021/08/13 05:32:03;;;;;;;19.83;16.23;;;;;;;16.99;100.00;101927.63;5152168;29;20031;-65
2021/08/13 05:34:35;;;;;;;21.17;17.30;;;;;;;17.02;100.00;101923.84;5152397;29;20037;-65
2021/08/13 05:37:06;;;;;;;20.15;16.25;;;;;;;17.13;100.00;101926.31;5152135;28;20023;-66
2021/08/13 05:39:37;;;;;;;19.75;15.90;;;;;;;17.06;100.00;101917.28;5153106;28;20023;-65
2021/08/13 05:42:09;;;;;;;17.63;15.43;;;;;;;17.18;100.00;101933.81;5152081;29;20094;-65
2021/08/13 05:44:40;;;;;;;20.45;15.30;;;;;;;17.19;100.00;101932.81;5152543;28;20038;-65
2021/08/13 05:47:11;;;;;;;18.42;15.02;;;;;;;17.21;100.00;101934.34;5152903;28;20090;-66
2021/08/13 05:49:43;;;;;;;16.95;13.75;;;;;;;17.26;100.00;101931.25;5151021;28;20038;-66
2021/08/13 05:52:14;;;;;;;15.98;13.35;;;;;;;17.27;100.00;101927.63;5151701;28;20035;-65
2021/08/13 05:54:45;;;;;;;18.60;14.03;;;;;;;17.32;100.00;101932.50;5151477;28;20035;-66
2021/08/13 05:57:17;;;;;;;16.50;14.00;;;;;;;17.37;100.00;101925.75;5152272;28;20027;-66
2021/08/13 05:59:48;;;;;;;18.92;14.13;;;;;;;17.34;100.00;101923.41;5151595;28;20046;-67
2021/08/13 06:02:19;;;;;;;16.90;13.65;;;;;;;17.39;100.00;101934.41;5149211;28;20027;-66
2021/08/13 06:04:50;;;;;;;17.10;14.03;;;;;;;17.41;100.00;101934.25;5150917;28;20063;-66
2021/08/13 06:07:22;;;;;;;14.75;12.98;;;;;;;17.47;100.00;101936.31;5150762;28;20027;-66
2021/08/13 06:09:53;;;;;;;14.73;12.73;;;;;;;17.42;100.00;101925.31;5151637;28;20050;-66
2021/08/13 06:12:25;;;;;;;16.80;12.82;;;;;;;17.50;100.00;101926.25;5151712;28;20029;-66
2021/08/13 06:14:56;;;;;;;17.63;13.70;;;;;;;17.54;100.00;101939.19;5151474;28;20094;-66
2021/08/13 06:17:27;;;;;;;14.75;12.60;;;;;;;17.54;100.00;101923.28;5152331;28;20433;-66
2021/08/13 06:19:58;;;;;;;17.07;13.30;;;;;;;17.61;100.00;101938.44;5149246;29;20585;-66
2021/08/13 06:22:30;;;;;;;17.63;13.55;;;;;;;17.66;100.00;101945.97;5151037;28;20094;-66
2021/08/13 06:25:01;;;;;;;15.90;13.10;;;;;;;17.69;100.00;101943.84;5151366;28;20027;-66
2021/08/13 06:27:33;;;;;;;17.83;14.60;;;;;;;17.72;100.00;101948.81;5150658;29;20034;-66
2021/08/13 06:30:05;;;;;;;18.23;14.27;;;;;;;17.73;100.00;101939.91;5151981;28;20054;-66
2021/08/13 06:32:36;;;;;;;20.30;15.35;;;;;;;17.79;100.00;101940.31;5151658;29;20667;-66
2021/08/13 06:35:08;;;;;;;15.73;14.13;;;;;;;17.79;100.00;101946.44;5151454;28;20031;-67
2021/08/13 06:37:54;;;;;;;17.20;13.97;;;;;;;17.84;100.00;101941.53;5152728;28;20481;-66
2021/08/13 06:40:25;;;;;;;15.77;14.05;;;;;;;17.88;100.00;101948.22;5152357;29;20098;-66
2021/08/13 06:42:56;;;;;;;15.20;13.60;;;;;;;17.88;100.00;101955.31;5151256;28;20118;-66
2021/08/13 06:45:28;;;;;;;15.52;13.40;;;;;;;17.93;100.00;101953.06;5152179;28;20058;-66
2021/08/13 06:48:00;;;;;;;14.40;12.90;;;;;;;17.93;100.00;101953.88;5151569;28;20034;-67
2021/08/13 06:50:31;;;;;;;15.18;12.85;;;;;;;17.98;100.00;101961.38;5151016;28;20074;-66
2021/08/13 06:53:02;;;;;;;16.05;12.85;;;;;;;18.04;100.00;101958.13;5152264;28;20031;-66
2021/08/13 06:55:34;;;;;;;14.88;12.82;;;;;;;18.05;100.00;101959.78;5151499;28;20528;-66
2021/08/13 06:58:05;;;;;;;14.70;13.07;;;;;;;18.17;100.00;101966.53;5150447;28;20066;-66
2021/08/13 07:00:36;;;;;;;15.85;12.85;;;;;;;18.24;100.00;101972.88;5151120;28;20019;-66
2021/08/13 07:03:08;;;;;;;16.40;12.85;;;;;;;18.24;100.00;101967.59;5151595;28;20694;-66
2021/08/13 07:05:40;;;;;;;13.93;12.23;;;;;;;18.35;100.00;101969.16;5150595;29;20110;-66
2021/08/13 07:08:12;;;;;;;13.18;11.77;;;;;;;18.40;100.00;101985.44;5151639;28;20027;-66
2021/08/13 07:10:43;;;;;;;12.90;11.50;;;;;;;18.40;100.00;101977.50;5151803;29;20050;-66
2021/08/13 07:13:15;;;;;;;14.87;12.00;;;;;;;18.42;100.00;101988.78;5149915;28;20473;-66
2021/08/13 07:15:46;;;;;;;14.07;11.90;;;;;;;18.50;100.00;101993.34;5150155;28;20688;-67
2021/08/13 07:18:17;;;;;;;12.73;10.73;;;;;;;18.47;100.00;101990.97;5151908;28;20485;-66
2021/08/13 07:20:49;;;;;;;11.97;10.60;;;;;;;18.52;100.00;102006.44;5150472;28;20087;-66
2021/08/13 07:23:20;;;;;;;12.13;9.80;;;;;;;18.59;100.00;102002.19;5150875;28;20039;-67
2021/08/13 07:25:51;;;;;;;11.30;9.87;;;;;;;18.60;100.00;102015.31;5150731;28;20046;-66
2021/08/13 07:28:23;;;;;;;12.70;8.80;;;;;;;18.60;100.00;102003.84;5151472;28;20465;-66
2021/08/13 07:30:54;;;;;;;11.60;8.93;;;;;;;18.67;100.00;102011.03;5150269;28;20516;-66
2021/08/13 07:33:25;;;;;;;10.55;8.95;;;;;;;18.80;100.00;102005.38;5148988;28;20045;-66
2021/08/13 07:35:56;;;;;;;11.23;9.13;;;;;;;18.78;100.00;102009.97;5146684;28;20035;-66
2021/08/13 07:38:30;;;;;;;12.10;9.30;;;;;;;18.83;100.00;101999.75;5149605;28;20066;-66
2021/08/13 07:41:01;;;;;;;10.65;8.63;;;;;;;18.88;100.00;101994.78;5151257;28;20440;-66
2021/08/13 07:43:33;;;;;;;11.87;9.47;;;;;;;19.03;100.00;101988.91;5150863;28;20031;-66
2021/08/13 07:46:04;;;;;;;11.07;8.80;;;;;;;19.15;100.00;101999.09;5150015;28;20118;-66
2021/08/13 07:48:36;;;;;;;9.90;8.90;;;;;;;19.17;100.00;102007.75;5151078;28;20027;-66
2021/08/13 07:51:08;;;;;;;11.17;8.43;;;;;;;19.25;100.00;102006.97;5151410;28;20501;-66
2021/08/13 07:53:39;;;;;;;11.73;8.00;;;;;;;19.27;100.00;102012.09;5150690;28;20031;-66
2021/08/13 07:56:10;;;;;;;8.63;7.70;;;;;;;19.34;100.00;102026.41;5150260;28;20031;-66
2021/08/13 07:58:41;;;;;;;8.50;7.60;;;;;;;19.36;100.00;102024.44;5150471;28;20446;-66
2021/08/13 08:01:13;;;;;;;9.77;8.00;;;;;;;19.48;100.00;102023.16;5151730;28;20038;-66
2021/08/13 08:03:44;;;;;;;8.33;7.37;;;;;;;19.59;100.00;102014.91;5151218;28;20023;-66
2021/08/13 08:06:15;;;;;;;11.67;8.80;;;;;;;19.67;100.00;102022.94;5150215;28;20038;-66
2021/08/13 08:08:47;;;;;;;12.80;8.23;;;;;;;19.71;100.00;102049.22;5150557;28;20303;-66
2021/08/13 08:11:18;;;;;;;10.30;8.57;;;;;;;19.77;100.00;102061.84;5146069;28;20468;-66
2021/08/13 08:13:49;;;;;;;10.60;8.33;;;;;;;19.80;100.00;102056.22;5149755;29;20039;-66
2021/08/13 08:16:21;;;;;;;8.87;7.97;;;;;;;19.86;100.00;102055.56;5145952;28;20019;-66
2021/08/13 08:18:52;;;;;;;10.30;8.27;;;;;;;19.98;100.00;102046.28;5148815;28;20051;-67
2021/08/13 08:21:23;;;;;;;10.60;8.20;;;;;;;20.14;100.00;102038.34;5147045;28;20449;-66
2021/08/13 08:23:55;;;;;;;9.47;7.93;;;;;;;20.24;100.00;102042.69;5146373;28;20038;-67
2021/08/13 08:26:26;;;;;;;10.23;9.00;;;;;;;20.34;100.00;102046.00;5155008;28;20067;-67
2021/08/13 08:28:58;;;;;;;12.63;9.00;;;;;;;20.50;100.00;102038.09;5151473;28;20031;-67
2021/08/13 08:31:29;;;;;;;11.33;8.37;;;;;;;20.77;100.00;102052.88;5153539;28;20047;-66
2021/08/13 08:34:01;;;;;;;9.30;8.33;;;;;;;20.80;100.00;102049.88;5154096;28;20026;-66
2021/08/13 08:36:32;;;;;;;10.67;8.67;;;;;;;20.90;100.00;102047.03;5154168;29;20019;-66
2021/08/13 08:39:04;;;;;;;9.77;8.40;;;;;;;21.00;100.00;102054.84;5154365;29;20506;-66
2021/08/13 08:41:36;;;;;;;8.87;7.97;;;;;;;21.02;100.00;102044.84;5153748;29;20074;-66
2021/08/13 08:44:07;;;;;;;10.63;8.50;;;;;;;20.94;100.00;102050.19;5153863;28;20716;-66
2021/08/13 08:46:38;;;;;;;9.40;8.40;;;;;;;20.92;100.00;102047.72;5153507;28;20114;-66
2021/08/13 08:49:10;;;;;;;10.43;9.00;;;;;;;20.87;100.00;102053.53;5154214;28;20082;-66
2021/08/13 08:51:42;;;;;;;11.27;8.30;;;;;;;20.83;100.00;102059.34;5154966;28;20509;-66
2021/08/13 08:54:14;;;;;;;9.10;7.82;;;;;;;21.01;100.00;102061.84;5153770;28;20028;-66
2021/08/13 08:56:46;;;;;;;10.37;9.27;;;;;;;21.09;100.00;102059.16;5153518;29;20549;-67
2021/08/13 08:59:20;;;;;;;13.38;9.85;;;;;;;21.24;100.00;102056.63;5153341;28;20027;-66
2021/08/13 09:01:52;;;;;;;9.98;8.70;;;;;;;21.31;100.00;102049.59;5153752;29;20469;-66
2021/08/13 09:04:23;;;;;;;11.30;8.80;;;;;;;21.51;98.79;102053.56;5153530;29;20031;-66
2021/08/13 09:06:54;;;;;;;10.27;8.60;;;;;;;21.39;95.04;102052.28;5153388;28;20220;-66
2021/08/13 09:09:26;;;;;;;10.37;8.63;;;;;;;21.38;94.67;102062.09;5154271;28;20045;-67
2021/08/13 09:12:02;;;;;;;9.30;7.90;;;;;;;21.53;95.11;102059.56;5153801;28;20039;-66
2021/08/13 09:14:41;;;;;;;10.13;7.95;;;;;;;21.63;96.28;102070.03;5152177;29;20412;-66
2021/08/13 09:17:12;;;;;;;10.45;8.48;;;;;;;21.75;95.50;102070.47;5152438;29;20110;-66
2021/08/13 09:19:46;;;;;;;9.00;7.93;;;;;;;21.79;95.38;102075.28;5152850;28;20086;-66
2021/08/13 09:22:20;;;;;;;9.52;7.90;;;;;;;21.91;94.67;102078.41;5154309;28;20520;-66
2021/08/13 09:24:53;;;;;;;9.77;7.82;;;;;;;21.97;92.10;102074.19;5151912;29;20111;-67
2021/08/13 09:27:27;;;;;;;11.05;9.30;;;;;;;22.17;91.74;102082.63;5153849;29;20062;-66
2021/08/13 09:30:17;;;;;;;9.15;8.05;;;;;;;22.47;92.63;102092.44;5152321;29;20062;-66
2021/08/13 09:33:05;;;;;;;11.25;8.23;;;;;;;22.61;92.23;102097.97;5149572;29;20027;-66
2021/08/13 09:35:38;;;;;;;10.85;9.40;;;;;;;22.47;89.53;102095.09;5149733;28;20106;-66
2021/08/13 09:38:12;;;;;;;10.90;8.68;;;;;;;22.45;89.27;102086.41;5151552;29;20042;-66
2021/08/13 09:40:45;;;;;;;11.25;8.10;;;;;;;22.55;89.41;102097.69;5149136;29;20206;-67
2021/08/13 09:43:16;;;;;;;10.45;7.28;;;;;;;22.52;86.55;102099.91;5150576;29;20031;-66
2021/08/13 09:46:04;;;;;;;8.77;7.27;;;;;;;22.58;86.82;102104.53;5149929;29;20035;-66
2021/08/13 09:48:35;;;;;;;8.05;6.40;;;;;;;22.34;83.38;102082.31;5163202;28;20109;-67
2021/08/13 09:51:27;;;;;;;9.73;6.50;;;;;;;22.68;85.04;102096.25;5149616;28;20031;-67
2021/08/13 09:54:01;;;;;;;9.32;6.85;;;;;;;22.65;83.86;102086.75;5150511;29;20402;-67
2021/08/13 09:56:35;;;;;;;10.85;6.72;;;;;;;22.73;81.95;102096.53;5151840;29;20023;-67
2021/08/13 09:59:18;;;;;;;12.88;6.70;;;;;;;22.83;80.43;102091.78;5151512;29;20048;-68
2021/08/13 10:01:52;;;;;;;8.40;6.18;;;;;;;22.87;78.50;102105.63;5149945;28;20122;-67
2021/08/13 10:04:33;;;;;;;9.68;6.20;;;;;;;22.85;77.22;102100.47;5151037;29;20074;-68
2021/08/13 10:07:05;;;;;;;8.18;6.20;;;;;;;22.70;76.81;102089.75;5149242;29;20039;-67
2021/08/13 10:09:37;;;;;;;9.10;5.60;;;;;;;22.90;74.50;102098.06;5152065;28;20477;-67
2021/08/13 10:12:08;;;;;;;9.90;6.20;;;;;;;22.83;75.59;102097.13;5149474;28;20042;-67
2021/08/13 10:14:41;;;;;;;10.67;6.83;;;;;;;22.83;74.29;102089.94;5148761;28;20075;-68
2021/08/13 10:17:14;;;;;;;8.45;6.03;;;;;;;22.90;75.11;102087.38;5146798;29;20042;-67
2021/08/13 10:19:47;;;;;;;9.30;6.10;;;;;;;22.80;74.78;102089.47;5148663;29;20078;-68
2021/08/13 10:22:20;;;;;;;9.50;5.80;;;;;;;22.80;71.33;102086.78;5151103;29;20031;-67
2021/08/13 10:24:51;;;;;;;;;;;;;;;23.19;75.07;102083.13;5150223;29;20035;-66
2021/08/13 10:27:24;;;;;;;8.67;5.60;;;;;;;22.96;73.28;102078.69;5151831;28;19969;-67
2021/08/13 10:29:56;;;;;;;10.90;5.72;;;;;;;23.06;73.41;102076.56;5150493;29;20126;-67
2021/08/13 10:32:28;;;;;;;8.35;6.28;;;;;;;23.08;72.28;102084.41;5150189;29;20031;-67
2021/08/13 10:34:59;;;;;;;9.43;6.60;;;;;;;23.24;71.46;102086.09;5149614;29;20027;-67
2021/08/13 10:37:30;;;;;;;8.07;5.37;;;;;;;23.33;71.96;102084.97;5150617;28;20302;-67
2021/08/13 10:40:03;;;;;;;11.00;6.97;;;;;;;23.40;72.50;102095.75;5150466;29;20711;-67
2021/08/13 10:42:38;;;;;;;8.77;6.85;;;;;;;23.46;67.97;102100.38;5149541;29;20090;-67
2021/08/13 10:45:13;;;;;;;8.00;5.68;;;;;;;23.82;68.63;102094.28;5150786;29;20125;-67
2021/08/13 10:47:52;;;;;;;8.98;6.25;;;;;;;23.85;67.93;102100.09;5151391;28;20027;-67
2021/08/13 10:50:25;;;;;;;10.18;6.45;;;;;;;23.82;68.39;102102.31;5150207;28;20046;-67
2021/08/13 10:52:56;;;;;;;11.32;7.00;;;;;;;23.94;67.73;102096.31;5150771;28;20027;-67
2021/08/13 10:55:43;;;;;;;10.17;7.07;;;;;;;24.07;69.74;102102.81;5151972;28;20026;-67
2021/08/13 10:58:40;;;;;;;11.00;7.82;;;;;;;24.21;70.43;102101.97;5150659;28;20634;-67
2021/08/13 11:01:15;;;;;;;9.85;6.35;;;;;;;24.15;68.93;102100.03;5150572;29;20130;-67
2021/08/13 11:03:52;;;;;;;9.88;6.60;;;;;;;24.40;70.91;102104.03;5150082;29;20035;-67
2021/08/13 11:06:52;;;;;;;10.05;7.13;;;;;;;24.39;70.86;102104.22;5152017;28;20031;-67
2021/08/13 11:09:24;;;;;;;10.48;6.85;;;;;;;24.03;69.50;102110.41;5135585;28;20421;-67
2021/08/13 11:11:55;;;;;;;10.67;7.33;;;;;;;23.84;70.22;102122.53;5151217;28;20074;-67
2021/08/13 11:14:48;;;;;;;9.73;7.27;;;;;;;24.03;69.78;102124.63;5149545;28;20066;-67
2021/08/13 11:17:31;;;;;;;;;;;;;;;24.23;69.47;102124.84;5149912;29;20075;-67
2021/08/13 11:20:04;;;;;;;;;;;;;;;24.32;70.73;102122.88;5151757;29;20472;-67
2021/08/13 11:22:37;;;;;;;13.65;6.88;;;;;;;23.94;71.82;102131.09;5149478;28;19921;-67
2021/08/13 11:25:09;;;;;;;10.13;6.45;;;;;;;23.91;71.22;102112.75;5147686;29;20023;-67
2021/08/13 11:28:16;;;;;;;12.15;6.03;;;;;;;24.23;73.26;102122.16;5150902;28;20066;-67
2021/08/13 11:30:49;;;;;;;11.43;6.32;;;;;;;24.13;72.62;102110.94;5148486;29;20117;-67
2021/08/13 11:33:26;;;;;;;9.23;5.93;;;;;;;24.14;72.96;102112.59;5150449;28;20035;-67
2021/08/13 11:35:58;;;;;;;10.35;5.93;;;;;;;24.07;72.48;102111.69;5150276;29;20065;-67
2021/08/13 11:38:41;;;;;;;10.20;5.55;;;;;;;24.25;73.59;102116.63;5150379;28;20061;-67